Time;durP1;ratioP1;P1;durP2;ratioP2;P2;SDS_P1;SDS_P2;PMS_P1;PMS_P2;Temp;Humidity;BMP_temperature;BMP_pressure;BME280_temperature;BME280_humidity;BME280_pressure;Samples;Min_cycle;Max_cycle;Signal;HPM_P1;HPM_P2
2023/12/02 00:00:08;;;;;;;3.75;1.50;;;;;;;-1.65;73.11;100847.50;4994027;28;20042;-69
2023/12/02 00:02:37;;;;;;;3.97;1.23;;;;;;;-1.66;72.96;100838.06;4993061;28;20060;-69
2023/12/02 00:05:04;;;;;;;1.77;0.90;;;;;;;-1.66;72.69;100839.75;4994296;28;20092;-69
2023/12/02 00:07:31;;;;;;;7.22;1.10;;;;;;;-1.67;72.97;100844.00;4993989;28;20100;-69
2023/12/02 00:09:58;;;;;;;5.53;1.40;;;;;;;-1.67;72.89;100861.06;4994990;28;20126;-69
2023/12/02 00:12:25;;;;;;;1.85;0.85;;;;;;;-1.68;72.71;100855.09;4993770;28;20129;-69
2023/12/02 00:14:52;;;;;;;3.85;1.20;;;;;;;-1.70;73.16;100850.75;4994809;28;20074;-69
2023/12/02 00:17:19;;;;;;;2.03;1.20;;;;;;;-1.70;72.78;100846.47;4994088;28;20082;-69
2023/12/02 00:19:47;;;;;;;1.90;0.95;;;;;;;-1.70;72.74;100851.59;4994109;28;20086;-69
2023/12/02 00:22:15;;;;;;;3.10;1.35;;;;;;;-1.70;72.85;100850.75;4993731;28;20077;-69
2023/12/02 00:24:41;;;;;;;1.33;0.93;;;;;;;-1.73;73.15;100851.50;4994386;28;20100;-69
2023/12/02 00:27:09;;;;;;;2.42;1.02;;;;;;;-1.73;72.63;100845.53;4993955;28;20475;-69
2023/12/02 00:29:36;;;;;;;2.55;0.93;;;;;;;-1.74;72.65;100854.88;4993666;28;20084;-73
2023/12/02 00:32:03;;;;;;;3.95;1.17;;;;;;;-1.74;72.86;100854.00;4993675;28;20078;-72
2023/12/02 00:34:29;;;;;;;3.20;1.30;;;;;;;-1.76;72.69;100861.66;4993548;28;20078;-73
2023/12/02 00:36:58;;;;;;;2.95;1.10;;;;;;;-1.76;72.65;100866.78;4993845;28;20473;-73
2023/12/02 00:39:25;;;;;;;3.80;1.45;;;;;;;-1.78;72.57;100867.53;4994700;28;20047;-73
2023/12/02 00:41:52;;;;;;;2.13;0.98;;;;;;;-1.78;73.02;100868.41;4994378;28;20081;-73
2023/12/02 00:44:20;;;;;;;2.05;0.88;;;;;;;-1.79;72.69;100869.22;4993824;28;20128;-73
2023/12/02 00:46:47;;;;;;;2.30;1.00;;;;;;;-1.80;72.31;100875.16;4993512;28;20051;-73
2023/12/02 00:49:14;;;;;;;1.50;0.80;;;;;;;-1.82;73.07;100881.94;4993467;28;20535;-71
2023/12/02 00:51:41;;;;;;;2.85;0.85;;;;;;;-1.84;72.42;100869.06;4993431;28;20133;-71
2023/12/02 00:54:09;;;;;;;2.83;1.17;;;;;;;-1.86;72.71;100854.47;4993979;28;20445;-71
2023/12/02 00:56:36;;;;;;;4.20;1.13;;;;;;;-1.87;72.29;100852.75;4994070;28;20493;-71
2023/12/02 00:59:03;;;;;;;1.90;0.80;;;;;;;-1.88;72.52;100848.41;4993446;28;20089;-71
2023/12/02 01:01:30;;;;;;;1.92;0.90;;;;;;;-1.90;72.56;100863.75;4994217;28;20043;-71
2023/12/02 01:03:57;;;;;;;1.85;1.08;;;;;;;-1.92;72.46;100860.25;4993283;28;20084;-71
2023/12/02 01:06:24;;;;;;;3.78;2.35;;;;;;;-1.93;72.09;100873.03;4993413;28;20050;-70
2023/12/02 01:08:51;;;;;;;1.83;0.73;;;;;;;-1.95;72.71;100859.28;4993394;28;20089;-71
2023/12/02 01:11:19;;;;;;;1.63;0.70;;;;;;;-1.97;72.61;100866.03;4993407;28;20085;-71
2023/12/02 01:13:46;;;;;;;3.17;0.80;;;;;;;-1.99;72.74;100863.44;4994164;28;20042;-70
2023/12/02 01:16:13;;;;;;;1.85;0.98;;;;;;;-2.00;72.38;100865.94;4997012;28;20078;-71
2023/12/02 01:18:40;;;;;;;1.98;0.90;;;;;;;-2.03;72.77;100862.44;4997943;28;20165;-71
2023/12/02 01:21:07;;;;;;;1.60;0.73;;;;;;;-2.05;72.53;100866.66;4998216;28;20054;-70
2023/12/02 01:23:34;;;;;;;1.55;0.85;;;;;;;-2.04;72.19;100876.09;4997256;28;20081;-70
2023/12/02 01:26:01;;;;;;;2.35;0.90;;;;;;;-2.06;72.45;100880.25;4997737;28;20121;-70
2023/12/02 01:28:28;;;;;;;1.42;0.90;;;;;;;-2.07;72.45;100870.84;4996850;28;20508;-70
2023/12/02 01:30:55;;;;;;;0.95;0.60;;;;;;;-2.09;72.20;100867.38;4996817;28;20420;-70
2023/12/02 01:33:22;;;;;;;2.05;1.02;;;;;;;-2.10;72.21;100860.53;4996677;28;20084;-70
2023/12/02 01:35:50;;;;;;;2.13;1.00;;;;;;;-2.10;72.32;100859.66;4996974;28;20092;-70
2023/12/02 01:38:17;;;;;;;3.58;0.63;;;;;;;-2.13;71.74;100862.97;4996736;28;20531;-70
2023/12/02 01:40:44;;;;;;;2.63;0.95;;;;;;;-2.15;72.04;100861.19;4996684;28;20078;-69
2023/12/02 01:43:21;;;;;;;2.55;1.00;;;;;;;-2.17;72.28;100868.78;4997693;28;20085;-69
2023/12/02 01:45:50;;;;;;;0.77;0.43;;;;;;;-2.20;72.21;100873.81;4996481;28;20108;-69
2023/12/02 01:48:18;;;;;;;2.63;0.77;;;;;;;-2.21;72.53;100872.06;4997176;28;20139;-69
2023/12/02 01:50:45;;;;;;;3.58;1.25;;;;;;;-2.21;71.85;100876.31;4996425;28;20050;-69
2023/12/02 01:53:12;;;;;;;1.85;0.75;;;;;;;-2.25;72.54;100870.22;4996520;28;20504;-69
2023/12/02 01:55:39;;;;;;;12.02;1.20;;;;;;;-2.26;72.12;100869.34;4996331;28;20078;-69
2023/12/02 01:58:06;;;;;;;1.52;0.90;;;;;;;-2.31;72.28;100864.88;4997588;28;20421;-68
2023/12/02 02:00:33;;;;;;;1.90;0.80;;;;;;;-2.28;71.92;100872.66;4996308;28;20528;-71
2023/12/02 02:03:02;;;;;;;0.95;0.35;;;;;;;-2.29;72.04;100869.25;4996954;28;20472;-72
2023/12/02 02:05:29;;;;;;;2.03;0.88;;;;;;;-2.32;72.32;100871.69;4997797;28;20081;-72
2023/12/02 02:07:56;;;;;;;1.20;0.63;;;;;;;-2.32;72.71;100865.72;4996154;28;20089;-72
2023/12/02 02:10:23;;;;;;;1.85;0.60;;;;;;;-2.34;72.14;100864.78;4996300;28;20042;-72
2023/12/02 02:12:50;;;;;;;4.68;0.75;;;;;;;-2.36;72.40;100868.97;4996022;28;20548;-72
2023/12/02 02:15:17;;;;;;;1.60;0.73;;;;;;;-2.37;71.87;100877.47;4996258;28;20089;-72
2023/12/02 02:17:44;;;;;;;1.67;0.90;;;;;;;-2.39;71.87;100881.66;4995995;28;20445;-72
2023/12/02 02:20:12;;;;;;;3.42;0.60;;;;;;;-2.41;72.46;100878.19;4995991;28;20085;-72
2023/12/02 02:22:40;;;;;;;1.60;0.98;;;;;;;-2.42;71.82;100878.97;4995821;28;20509;-71
2023/12/02 02:25:08;;;;;;;1.60;0.80;;;;;;;-2.44;71.95;100883.19;4994842;28;20082;-72
2023/12/02 02:27:35;;;;;;;2.53;0.70;;;;;;;-2.44;71.82;100878.06;4995695;28;20082;-72
2023/12/02 02:30:02;;;;;;;1.85;0.85;;;;;;;-2.45;72.22;100881.44;4995817;28;20129;-72
2023/12/02 02:32:29;;;;;;;2.15;1.00;;;;;;;-2.49;72.26;100877.91;4996005;28;20078;-72
2023/12/02 02:34:56;;;;;;;1.45;0.80;;;;;;;-2.51;72.02;100877.84;4995629;28;20133;-72
2023/12/02 02:37:23;;;;;;;4.32;0.68;;;;;;;-2.53;72.05;100879.50;4996261;28;20469;-72
2023/12/02 02:39:51;;;;;;;1.98;0.80;;;;;;;-2.54;71.92;100876.84;4996399;28;20120;-72
2023/12/02 02:42:18;;;;;;;2.15;1.10;;;;;;;-2.55;71.88;100881.09;4995564;28;20074;-72
2023/12/02 02:44:45;;;;;;;2.75;1.08;;;;;;;-2.56;71.78;100888.72;4996242;28;20105;-72
2023/12/02 02:47:12;;;;;;;1.52;0.40;;;;;;;-2.57;71.88;100881.88;4995422;28;20042;-71
2023/12/02 02:49:39;;;;;;;1.85;0.70;;;;;;;-2.60;72.50;100882.63;4995699;28;20460;-72
2023/12/02 02:52:07;;;;;;;2.22;0.80;;;;;;;-2.60;71.90;100891.97;4996135;28;20539;-72
2023/12/02 02:54:34;;;;;;;2.33;0.77;;;;;;;-2.61;71.67;100887.69;4995512;28;20057;-72
2023/12/02 02:57:02;;;;;;;2.30;1.10;;;;;;;-2.64;71.90;100885.91;4995527;28;20082;-71
2023/12/02 02:59:29;;;;;;;1.92;0.88;;;;;;;-2.66;72.01;100890.06;4996263;28;20113;-71
2023/12/02 03:01:56;;;;;;;1.10;0.60;;;;;;;-2.67;72.01;100890.91;4995069;28;20082;-71
2023/12/02 03:04:23;;;;;;;1.55;0.90;;;;;;;-2.69;72.38;100886.53;4995836;28;20108;-71
2023/12/02 03:06:50;;;;;;;2.13;0.80;;;;;;;-2.68;72.21;100890.81;4995337;28;20077;-72
2023/12/02 03:09:17;;;;;;;1.63;0.68;;;;;;;-2.69;71.88;100883.97;4995051;28;20162;-69
2023/12/02 03:11:47;;;;;;;4.18;0.98;;;;;;;-2.71;72.16;100889.91;4995025;28;20078;-69
2023/12/02 03:14:15;;;;;;;1.85;0.60;;;;;;;-2.71;71.88;100899.25;4995436;28;20444;-69
2023/12/02 03:16:42;;;;;;;3.10;0.65;;;;;;;-2.72;72.03;100892.41;4994908;28;20101;-69
2023/12/02 03:19:09;;;;;;;1.55;0.82;;;;;;;-2.72;71.85;100897.53;4994809;28;20480;-69
2023/12/02 03:21:36;;;;;;;1.83;0.47;;;;;;;-2.76;72.10;100888.88;4994716;28;20089;-69
2023/12/02 03:24:04;;;;;;;2.35;0.70;;;;;;;-2.79;71.70;100885.31;4995260;28;20539;-69
2023/12/02 03:26:31;;;;;;;0.88;0.65;;;;;;;-2.77;72.33;100891.34;4995699;28;20464;-69
2023/12/02 03:28:58;;;;;;;2.28;0.90;;;;;;;-2.78;72.13;100892.19;4994824;28;20129;-69
2023/12/02 03:31:26;;;;;;;1.25;0.65;;;;;;;-2.80;71.66;100894.66;4994570;28;20101;-69
2023/12/02 03:33:53;;;;;;;2.47;0.80;;;;;;;-2.80;72.25;100898.91;4994549;28;20085;-69
2023/12/02 03:36:20;;;;;;;3.08;0.70;;;;;;;-2.81;72.29;100902.31;4994125;28;20104;-69
2023/12/02 03:38:47;;;;;;;2.28;0.80;;;;;;;-2.82;71.88;100901.41;4995286;28;20156;-69
2023/12/02 03:41:14;;;;;;;1.77;1.00;;;;;;;-2.83;71.96;100898.81;4994718;28;20078;-69
2023/12/02 03:43:41;;;;;;;2.50;0.70;;;;;;;-2.83;72.21;100893.69;4994344;28;20086;-69
2023/12/02 03:46:08;;;;;;;1.42;0.65;;;;;;;-2.84;71.83;100894.53;4995111;28;20074;-69
2023/12/02 03:48:37;;;;;;;2.50;0.93;;;;;;;-2.85;72.27;100910.66;4995185;28;20085;-69
2023/12/02 03:51:04;;;;;;;2.20;0.98;;;;;;;-2.86;71.91;100904.66;4994065;28;20112;-69
2023/12/02 03:53:34;;;;;;;2.33;1.10;;;;;;;-2.87;72.30;100897.81;4994485;28;20086;-69
2023/12/02 03:56:01;;;;;;;1.38;0.70;;;;;;;-2.87;72.15;100914.84;4994194;28;20050;-69
2023/12/02 03:58:28;;;;;;;2.10;0.52;;;;;;;-2.89;71.81;100909.66;4994060;28;20050;-69
2023/12/02 04:00:56;;;;;;;0.90;0.63;;;;;;;-2.90;72.13;100917.25;4994183;28;20057;-70
2023/12/02 04:03:23;;;;;;;1.88;0.77;;;;;;;-2.90;72.41;100914.72;4995289;28;20492;-70
2023/12/02 04:05:51;;;;;;;2.28;0.98;;;;;;;-2.91;71.92;100913.84;4993983;28;20078;-70
2023/12/02 04:08:18;;;;;;;4.82;0.60;;;;;;;-2.92;71.88;100913.81;4993930;28;20050;-70
2023/12/02 04:10:45;;;;;;;2.00;0.90;;;;;;;-2.94;72.16;100917.16;4993887;28;20129;-70
2023/12/02 04:13:13;;;;;;;0.95;0.40;;;;;;;-2.92;72.16;100926.59;4994907;28;20074;-70
2023/12/02 04:15:40;;;;;;;1.73;0.98;;;;;;;-2.95;71.95;100923.09;4994399;28;20078;-70
2023/12/02 04:18:07;;;;;;;4.45;0.63;;;;;;;-2.95;72.11;100929.88;4994844;28;20046;-70
2023/12/02 04:20:34;;;;;;;2.05;0.90;;;;;;;-2.96;72.16;100926.47;4994664;28;20085;-69
2023/12/02 04:23:04;;;;;;;1.77;0.90;;;;;;;-2.96;71.97;100923.91;4993742;28;20512;-69
2023/12/02 04:25:31;;;;;;;1.33;1.05;;;;;;;-2.96;72.12;100925.56;4994225;28;20401;-70
2023/12/02 04:27:57;;;;;;;2.70;0.80;;;;;;;-2.98;72.27;100928.09;4993952;28;20077;-70
2023/12/02 04:30:24;;;;;;;2.05;0.95;;;;;;;-3.02;72.47;100930.44;4994563;28;20074;-69
2023/12/02 04:32:51;;;;;;;3.38;1.00;;;;;;;-2.98;72.49;100935.75;4993679;28;20112;-70
2023/12/02 04:35:18;;;;;;;1.92;0.65;;;;;;;-2.98;72.11;100933.19;4993642;28;20127;-70
2023/12/02 04:37:45;;;;;;;1.98;1.00;;;;;;;-2.98;71.94;100935.75;4993871;28;20078;-69
2023/12/02 04:40:13;;;;;;;1.38;0.70;;;;;;;-2.99;72.30;100931.47;4994047;28;20497;-70
2023/12/02 04:42:41;;;;;;;1.67;0.63;;;;;;;-2.99;72.29;100933.13;4993651;28;20074;-70
2023/12/02 04:45:09;;;;;;;1.13;0.95;;;;;;;-2.99;72.39;100946.78;4993678;28;20082;-70
2023/12/02 04:47:37;;;;;;;4.00;1.00;;;;;;;-3.00;71.84;100936.50;4993432;28;20047;-69
2023/12/02 04:50:05;;;;;;;2.38;1.02;;;;;;;-3.01;71.67;100940.75;4996948;28;20053;-70
2023/12/02 04:52:32;;;;;;;3.65;0.93;;;;;;;-3.00;71.96;100950.16;4997630;28;20054;-70
2023/12/02 04:54:59;;;;;;;2.15;0.90;;;;;;;-3.01;72.38;100956.06;4997479;28;20074;-70
2023/12/02 04:57:27;;;;;;;1.20;0.70;;;;;;;-3.00;72.32;100947.59;4997505;28;20077;-69
2023/12/02 04:59:54;;;;;;;2.60;0.63;;;;;;;-3.01;72.10;100950.09;4997882;28;20078;-69
2023/12/02 05:02:22;;;;;;;1.73;0.70;;;;;;;-3.01;72.24;100945.84;4998386;28;20046;-70
2023/12/02 05:04:49;;;;;;;2.50;0.80;;;;;;;-3.04;71.98;100939.75;4997439;28;20137;-70
2023/12/02 05:07:16;;;;;;;2.25;1.00;;;;;;;-3.02;72.56;100946.66;4997270;28;20077;-70
2023/12/02 05:09:43;;;;;;;1.42;0.80;;;;;;;-3.01;71.88;100948.41;4997255;28;20126;-70
2023/12/02 05:12:10;;;;;;;1.17;0.80;;;;;;;-3.02;72.05;100949.19;4998246;28;20092;-70
2023/12/02 05:14:39;;;;;;;1.70;0.65;;;;;;;-3.01;72.11;100950.09;4997028;28;20046;-70
2023/12/02 05:17:06;;;;;;;1.38;0.75;;;;;;;-3.01;72.36;100952.66;4997867;28;20433;-70
2023/12/02 05:19:33;;;;;;;1.23;0.80;;;;;;;-3.04;71.93;100955.97;4997203;28;20054;-70
2023/12/02 05:22:00;;;;;;;1.30;0.65;;;;;;;-3.03;72.12;100957.69;4997393;28;20109;-70
2023/12/02 05:24:27;;;;;;;3.13;1.23;;;;;;;-3.03;71.70;100957.69;4996957;28;20555;-70
2023/12/02 05:26:54;;;;;;;2.75;0.70;;;;;;;-3.04;71.85;100961.06;4996814;28;20088;-70
2023/12/02 05:29:20;;;;;;;1.85;0.95;;;;;;;-3.04;71.82;100960.22;4996992;28;20453;-71
2023/12/02 05:31:49;;;;;;;1.95;0.77;;;;;;;-3.04;71.79;100960.22;4997102;28;20157;-71
2023/12/02 05:34:16;;;;;;;4.22;0.80;;;;;;;-3.05;71.83;100959.31;4996969;28;20405;-72
2023/12/02 05:36:46;;;;;;;2.42;1.05;;;;;;;-3.04;72.18;100960.22;4996780;28;20117;-71
2023/12/02 05:39:13;;;;;;;1.92;0.80;;;;;;;-3.06;71.75;100960.13;4997168;28;20057;-71
2023/12/02 05:41:41;;;;;;;1.67;0.60;;;;;;;-3.05;72.14;100959.31;4997401;28;20080;-71
2023/12/02 05:44:08;;;;;;;2.38;0.90;;;;;;;-3.07;72.06;100955.84;4996560;28;20496;-71
2023/12/02 05:46:35;;;;;;;4.15;1.05;;;;;;;-3.07;72.09;100960.94;4996861;28;20046;-71
2023/12/02 05:49:04;;;;;;;0.90;0.60;;;;;;;-3.07;71.75;100952.41;4996556;28;20081;-71
2023/12/02 05:51:31;;;;;;;3.63;0.80;;;;;;;-3.08;72.23;100959.19;4996556;28;20531;-71
2023/12/02 05:53:58;;;;;;;3.70;0.70;;;;;;;-3.11;71.75;100953.97;4996299;28;20050;-71
2023/12/02 05:56:25;;;;;;;1.70;0.77;;;;;;;-3.09;71.95;100954.91;4996444;28;20077;-71
2023/12/02 05:58:53;;;;;;;3.42;0.70;;;;;;;-3.07;71.90;100960.94;4997009;28;20078;-71
2023/12/02 06:01:20;;;;;;;1.50;0.68;;;;;;;-3.08;72.30;100961.75;4996168;28;20046;-71
2023/12/02 06:03:48;;;;;;;1.90;0.80;;;;;;;-3.08;72.11;100956.63;4997061;28;20457;-71
2023/12/02 06:06:17;;;;;;;3.35;0.80;;;;;;;-3.08;71.94;100963.44;4996504;28;20131;-72
2023/12/02 06:08:44;;;;;;;1.83;0.60;;;;;;;-3.08;72.20;100964.31;4996190;28;20496;-72
2023/12/02 06:11:10;;;;;;;1.83;0.60;;;;;;;-3.08;71.87;100961.75;4996167;28;20080;-72
2023/12/02 06:13:37;;;;;;;3.03;0.80;;;;;;;-3.09;72.02;100972.78;4996394;28;20078;-72
2023/12/02 06:16:05;;;;;;;1.65;0.70;;;;;;;-3.09;71.93;100984.69;4995981;28;20133;-72
2023/12/02 06:18:32;;;;;;;1.92;0.70;;;;;;;-3.10;71.80;100988.94;4997156;28;20100;-72
2023/12/02 06:20:59;;;;;;;2.15;0.52;;;;;;;-3.11;72.19;100984.63;4996896;28;20555;-72
2023/12/02 06:23:27;;;;;;;1.35;0.50;;;;;;;-3.12;72.01;100985.44;4996137;28;20078;-72
2023/12/02 06:25:54;;;;;;;4.30;0.60;;;;;;;-3.12;71.93;100988.00;4996123;28;20508;-72
2023/12/02 06:28:21;;;;;;;1.33;0.68;;;;;;;-3.13;72.04;100986.25;4995757;28;20054;-72
2023/12/02 06:30:48;;;;;;;2.88;0.77;;;;;;;-3.15;71.98;100980.22;4995822;28;20124;-72
2023/12/02 06:33:15;;;;;;;1.27;0.45;;;;;;;-3.15;71.42;100985.31;4995717;28;20082;-72
2023/12/02 06:35:42;;;;;;;1.33;0.43;;;;;;;-3.17;71.33;100984.38;4996786;28;20126;-72
2023/12/02 06:38:09;;;;;;;1.20;0.70;;;;;;;-3.17;71.86;100979.28;4995624;28;20082;-72
2023/12/02 06:40:37;;;;;;;2.13;0.55;;;;;;;-3.19;71.64;100986.00;4995698;28;20512;-71
2023/12/02 06:43:04;;;;;;;1.45;0.52;;;;;;;-3.20;71.83;100977.47;4995545;28;20050;-71
2023/12/02 06:45:31;;;;;;;1.10;0.57;;;;;;;-3.21;71.76;100982.53;4995344;28;20512;-71
2023/12/02 06:47:58;;;;;;;1.75;0.60;;;;;;;-3.21;71.60;100982.53;4995444;28;20097;-71
2023/12/02 06:50:25;;;;;;;1.27;0.50;;;;;;;-3.21;71.56;100975.72;4995490;28;20476;-71
2023/12/02 06:52:52;;;;;;;1.17;0.57;;;;;;;-3.22;71.71;100975.66;4995684;28;20184;-71
2023/12/02 06:55:19;;;;;;;1.60;0.57;;;;;;;-3.24;71.65;100972.19;4995169;28;20049;-71
2023/12/02 06:57:48;;;;;;;1.45;0.73;;;;;;;-3.24;71.75;100983.28;4996327;28;20456;-71
2023/12/02 07:00:16;;;;;;;1.25;0.80;;;;;;;-3.24;71.62;100977.28;4995352;28;20096;-71
2023/12/02 07:02:43;;;;;;;1.27;0.77;;;;;;;-3.27;72.02;100982.28;4995185;28;20445;-71
2023/12/02 07:05:10;;;;;;;2.20;0.75;;;;;;;-3.26;71.75;101012.13;4995174;28;20082;-71
2023/12/02 07:07:37;;;;;;;1.35;0.80;;;;;;;-3.25;71.81;101011.28;4995067;28;20042;-71
2023/12/02 07:10:04;;;;;;;1.70;0.60;;;;;;;-3.27;71.59;101007.84;4974087;23;20089;-71
2023/12/02 07:12:31;;;;;;;1.67;0.50;;;;;;;-3.28;71.60;101011.16;4994373;28;20504;-71
2023/12/02 07:14:59;;;;;;;1.00;0.70;;;;;;;-3.30;71.74;101016.25;4994766;28;20137;-71
2023/12/02 07:17:26;;;;;;;1.17;0.52;;;;;;;-3.30;71.91;101023.00;4994932;28;20509;-70
2023/12/02 07:19:53;;;;;;;1.50;0.60;;;;;;;-3.31;71.59;101016.16;4994807;28;20085;-71
2023/12/02 07:22:20;;;;;;;1.95;0.73;;;;;;;-3.32;71.78;101019.53;4994823;28;20077;-70
2023/12/02 07:24:47;;;;;;;0.40;0.25;;;;;;;-3.32;71.71;101022.09;4994929;28;20104;-71
2023/12/02 07:27:14;;;;;;;0.93;0.50;;;;;;;-3.33;71.90;101027.97;4994812;28;20478;-71
2023/12/02 07:29:41;;;;;;;1.73;0.70;;;;;;;-3.34;71.48;101033.91;4994648;28;20081;-73
2023/12/02 07:32:09;;;;;;;1.13;0.60;;;;;;;-3.35;71.06;101029.63;4995399;28;20050;-73
2023/12/02 07:34:36;;;;;;;0.98;0.40;;;;;;;-3.36;71.43;101027.84;4994741;28;20078;-73
2023/12/02 07:37:04;;;;;;;1.35;0.50;;;;;;;-3.37;71.10;101029.53;4995574;28;20410;-73
2023/12/02 07:39:31;;;;;;;1.63;1.05;;;;;;;-3.37;71.73;101036.34;4995613;28;20081;-73
2023/12/02 07:41:57;;;;;;;2.03;0.73;;;;;;;-3.41;71.41;101035.34;4994511;28;20077;-73
2023/12/02 07:44:25;;;;;;;6.55;0.73;;;;;;;-3.44;71.44;101028.44;4995213;28;20074;-73
2023/12/02 07:46:51;;;;;;;1.88;0.77;;;;;;;-3.43;71.59;101032.72;4994381;28;20054;-73
2023/12/02 07:49:20;;;;;;;2.30;0.70;;;;;;;-3.45;71.04;101038.56;4994356;28;20078;-73
2023/12/02 07:51:48;;;;;;;3.03;0.80;;;;;;;-3.44;71.38;101043.75;4994505;28;20444;-73
2023/12/02 07:54:15;;;;;;;1.08;0.85;;;;;;;-3.45;71.59;101047.09;4994210;28;20050;-72
2023/12/02 07:56:41;;;;;;;1.50;0.52;;;;;;;-3.47;71.14;101045.28;4995453;28;20459;-73
2023/12/02 07:59:08;;;;;;;1.83;0.57;;;;;;;-3.47;71.14;101047.84;4994082;28;20050;-73
2023/12/02 08:01:35;;;;;;;1.33;0.68;;;;;;;-3.47;71.03;101050.38;4994436;28;20085;-72
2023/12/02 08:04:02;;;;;;;1.80;0.65;;;;;;;-3.48;71.47;101056.31;4994467;28;20085;-73
2023/12/02 08:06:31;;;;;;;2.25;0.80;;;;;;;-3.49;71.29;101063.09;4993949;28;20054;-73
2023/12/02 08:08:58;;;;;;;1.95;0.75;;;;;;;-3.50;70.79;101061.38;4994395;28;20113;-73
2023/12/02 08:11:26;;;;;;;0.77;0.60;;;;;;;-3.50;70.91;101063.94;4993945;28;20073;-72
2023/12/02 08:13:53;;;;;;;1.50;0.90;;;;;;;-3.51;71.08;101062.16;4994933;28;20077;-73
2023/12/02 08:16:20;;;;;;;2.03;0.85;;;;;;;-3.52;71.42;101075.75;4994665;28;20489;-73
2023/12/02 08:18:59;;;;;;;3.65;1.00;;;;;;;-3.68;70.94;101046.09;4993872;28;20078;-73
2023/12/02 08:21:26;;;;;;;1.33;0.90;;;;;;;-3.53;70.86;101078.22;4994976;28;20081;-72
2023/12/02 08:23:54;;;;;;;1.13;0.50;;;;;;;-3.53;71.08;101079.13;4992964;28;20077;-72
2023/12/02 08:26:21;;;;;;;2.00;0.60;;;;;;;-3.54;71.51;101082.47;4994673;28;20414;-72
2023/12/02 08:28:48;;;;;;;1.52;0.40;;;;;;;-3.53;71.08;101083.31;4993576;28;20078;-73
2023/12/02 08:31:16;;;;;;;2.38;0.80;;;;;;;-3.53;71.01;101079.13;4993599;28;20050;-72
2023/12/02 08:33:43;;;;;;;2.70;0.95;;;;;;;-3.55;71.43;101083.28;4994372;28;20540;-73
2023/12/02 08:36:19;;;;;;;3.03;0.93;;;;;;;-3.54;71.08;101084.16;4994825;28;20078;-73
2023/12/02 08:38:46;;;;;;;2.70;0.88;;;;;;;-3.53;71.29;101085.88;4994066;28;20125;-70
2023/12/02 08:41:14;;;;;;;2.15;0.73;;;;;;;-3.57;71.58;101073.81;4993863;28;20505;-70
2023/12/02 08:43:47;;;;;;;2.10;0.60;;;;;;;-3.65;71.11;101071.78;4993793;28;20121;-70
2023/12/02 08:46:14;;;;;;;2.00;0.68;;;;;;;-3.53;71.26;101097.00;4994111;28;20134;-70
2023/12/02 08:48:41;;;;;;;2.45;0.95;;;;;;;-3.53;71.11;101097.00;4994273;28;20492;-71
2023/12/02 08:51:09;;;;;;;2.75;0.95;;;;;;;-3.53;70.93;101097.00;4993501;28;20058;-70
2023/12/02 08:53:36;;;;;;;1.63;0.65;;;;;;;-3.53;71.04;101103.75;4994194;28;20078;-70
2023/12/02 08:58:23;;;;;;;1.30;0.50;;;;;;;-3.55;71.23;101103.69;5108487;27;20405;-72
2023/12/02 09:00:50;;;;;;;1.45;0.70;;;;;;;-3.53;71.73;101107.22;5090567;28;20135;-69
2023/12/02 09:03:17;;;;;;;1.67;0.70;;;;;;;-3.52;71.76;101110.63;5092146;28;20434;-70
2023/12/02 09:05:45;;;;;;;2.15;0.77;;;;;;;-3.54;71.37;101109.69;5090824;28;20044;-70
2023/12/02 09:08:12;;;;;;;2.60;0.70;;;;;;;-3.51;71.72;101114.91;5090508;28;20059;-70
2023/12/02 09:10:39;;;;;;;3.35;1.15;;;;;;;-3.50;71.25;101112.44;5091257;28;20482;-70
2023/12/02 09:13:13;;;;;;;2.10;1.00;;;;;;;-3.50;71.65;101107.34;5090258;28;20128;-70
2023/12/02 09:15:44;;;;;;;1.42;0.80;;;;;;;-3.47;71.25;101121.88;5090594;28;20080;-70
2023/12/02 09:18:13;;;;;;;2.58;0.80;;;;;;;-3.47;71.04;101122.78;5090178;28;20080;-70
2023/12/02 09:20:43;;;;;;;2.00;1.17;;;;;;;-3.47;71.42;101120.25;5090064;28;20052;-70
2023/12/02 09:23:11;;;;;;;1.88;1.08;;;;;;;-3.44;71.66;101116.94;5091406;28;20055;-71
2023/12/02 09:25:43;;;;;;;1.25;0.90;;;;;;;-3.43;71.39;101124.66;5090547;28;20044;-70
2023/12/02 09:28:18;;;;;;;1.90;0.60;;;;;;;-3.41;71.58;101123.06;5090975;28;20410;-71
2023/12/02 09:31:03;;;;;;;1.10;0.60;;;;;;;-3.40;71.17;101129.03;5090371;28;20147;-70
2023/12/02 09:33:30;;;;;;;1.45;0.50;;;;;;;-3.40;71.65;101122.22;5089300;28;20045;-70
2023/12/02 09:35:59;;;;;;;1.75;0.80;;;;;;;-3.40;71.45;101117.13;5089948;28;20076;-70
2023/12/02 09:38:28;;;;;;;4.55;0.73;;;;;;;-3.38;71.29;101116.34;5089875;28;20044;-71
2023/12/02 09:41:25;;;;;;;1.83;0.70;;;;;;;-3.35;71.08;101116.47;5090906;28;20474;-71
2023/12/02 09:44:15;;;;;;;1.58;0.45;;;;;;;-3.36;71.79;101109.59;5091042;28;20050;-70
2023/12/02 09:46:56;;;;;;;1.63;0.70;;;;;;;-3.34;71.63;101113.09;5090886;28;20129;-70
2023/12/02 09:49:53;;;;;;;1.08;0.43;;;;;;;-3.33;71.08;101114.84;5090007;28;20491;-72
2023/12/02 09:52:52;;;;;;;2.28;1.13;;;;;;;-3.31;71.38;101120.88;5088519;28;20098;-73
2023/12/02 09:55:29;;;;;;;3.70;0.70;;;;;;;-3.31;71.47;101124.31;5089471;28;20078;-72
2023/12/02 09:58:07;;;;;;;0.70;0.47;;;;;;;-3.28;71.46;101121.03;5090213;28;20088;-72
2023/12/02 10:00:43;;;;;;;2.45;0.90;;;;;;;-3.27;71.52;101120.22;5089346;28;20513;-72
2023/12/02 10:03:28;;;;;;;2.58;0.73;;;;;;;-3.25;71.29;101121.16;5090422;28;20051;-73
2023/12/02 10:06:04;;;;;;;1.30;0.70;;;;;;;-3.24;71.36;101120.38;5090481;28;20402;-73
2023/12/02 10:08:44;;;;;;;3.75;0.80;;;;;;;-3.23;71.36;101125.53;5082368;28;20140;-72
2023/12/02 10:11:19;;;;;;;1.08;0.57;;;;;;;-3.21;71.37;101123.03;5075717;28;20127;-69
2023/12/02 10:13:53;;;;;;;0.57;0.32;;;;;;;-3.20;71.35;101123.09;5075614;28;20076;-69
2023/12/02 10:16:24;;;;;;;0.85;0.50;;;;;;;-3.19;71.15;101116.28;5075484;28;20076;-69
2023/12/02 10:18:54;;;;;;;2.10;0.90;;;;;;;-3.18;71.16;101118.94;5076171;28;20106;-69
2023/12/02 10:21:22;;;;;;;2.35;0.82;;;;;;;-3.15;71.70;101114.75;5075523;28;20525;-70
2023/12/02 10:23:58;;;;;;;1.27;0.70;;;;;;;-3.15;71.58;101125.84;5075780;28;20465;-69
2023/12/02 10:26:28;;;;;;;2.63;0.95;;;;;;;-3.13;71.43;101124.25;5075772;28;20040;-68
2023/12/02 10:29:07;;;;;;;1.88;0.77;;;;;;;-3.12;71.53;101125.97;5075706;28;20076;-69
2023/12/02 10:31:36;;;;;;;4.75;0.60;;;;;;;-3.12;71.04;101117.44;5075701;28;20102;-69
2023/12/02 10:34:15;;;;;;;1.75;0.80;;;;;;;-3.08;71.59;101119.31;5075347;28;20080;-69
2023/12/02 10:36:48;;;;;;;1.27;0.63;;;;;;;-3.07;71.54;101119.38;5076575;28;20438;-69
2023/12/02 10:39:24;;;;;;;2.65;0.73;;;;;;;-3.06;71.13;101110.03;5075770;28;20053;-68
2023/12/02 10:41:59;;;;;;;1.38;0.60;;;;;;;-3.06;71.55;101105.78;5075520;28;20080;-69
2023/12/02 10:44:32;;;;;;;2.25;1.13;;;;;;;-3.03;71.57;101116.13;5075041;28;20080;-68
2023/12/02 10:47:00;;;;;;;2.63;0.93;;;;;;;-3.01;71.59;101126.44;5075697;28;20052;-68
2023/12/02 10:49:30;;;;;;;1.92;0.98;;;;;;;-2.99;71.26;101133.38;5075313;28;20101;-68
2023/12/02 10:51:59;;;;;;;3.25;0.80;;;;;;;-2.98;71.58;101137.66;5075607;28;20398;-69
2023/12/02 10:54:29;;;;;;;4.60;1.08;;;;;;;-2.96;71.35;101137.72;5075342;28;20083;-69
2023/12/02 10:57:06;;;;;;;2.25;0.60;;;;;;;-2.96;71.63;101138.59;5074749;28;20136;-69
2023/12/02 10:59:36;;;;;;;2.45;0.88;;;;;;;-2.94;71.34;101142.06;5074993;28;20045;-73
2023/12/02 11:02:24;;;;;;;5.72;0.73;;;;;;;-2.91;71.79;101148.13;5074898;28;20055;-73
2023/12/02 11:05:03;;;;;;;1.35;0.52;;;;;;;-2.90;71.46;101142.22;5074856;28;20049;-73
2023/12/02 11:07:32;;;;;;;1.30;0.77;;;;;;;-2.89;71.03;101139.72;5075249;28;20064;-73
2023/12/02 11:10:04;;;;;;;3.13;0.80;;;;;;;-2.88;71.13;101143.16;5074756;28;20045;-73
2023/12/02 11:12:39;;;;;;;1.95;0.80;;;;;;;-2.87;71.54;101137.25;5075360;28;20402;-74
2023/12/02 11:15:09;;;;;;;;;;;;;;;-2.86;71.53;101134.75;5075014;28;20502;-73
2023/12/02 11:17:40;;;;;;;1.77;0.75;;;;;;;-2.84;71.50;101139.94;5074452;28;20378;-73
2023/12/02 11:20:17;;;;;;;1.13;0.63;;;;;;;-2.85;70.82;101141.59;5074755;28;20072;-73
2023/12/02 11:23:31;;;;;;;1.13;0.52;;;;;;;-2.83;71.70;101146.78;5074504;28;20076;-73
2023/12/02 11:26:10;;;;;;;1.50;0.60;;;;;;;-2.82;71.46;101156.19;5074328;28;20533;-74
2023/12/02 11:28:48;;;;;;;1.02;0.80;;;;;;;-2.79;71.65;101171.66;5074335;28;20059;-73
2023/12/02 11:31:26;;;;;;;1.88;0.63;;;;;;;-2.79;71.68;101161.41;5075366;28;20533;-73
2023/12/02 11:34:14;;;;;;;3.42;1.48;;;;;;;-2.78;71.61;101163.19;5074323;28;20091;-73